Flight Track Log - Related Links

Times and Time Zones

All times are in EDT time to prevent confusion due to time zone crossing. See the OPT732 flight status page for this flight to view local times or setup timezone preferences in your user account.

Time Position Orientation Groundspeed Altitude Reporting Facility
EDT Latitude Longitude Course Direction KTS MPH feet Rate Location/Type
Wed 01:00:53 PM 37.4333 -121.9833 63° Northeast 234 269 4,800  Level Northern Cal TRACON
Wed 01:01:53 PM 37.4333 -121.9000 90° East 248 285 5,100 809 Climbing Northern Cal TRACON
Wed 01:03:14 PM 37.3675 -121.8311 140° Southeast 241 277 6,700 1,944 Climbing Oakland Center
Wed 01:04:15 PM 37.3167 -121.7836 143° Southeast 264 304 9,700 3,268 Climbing Oakland Center
Wed 01:05:00 PM 37.8294 -121.8364 76° East  Level FlightAware Approximate
Wed 01:05:17 PM 37.2806 -121.8592 239° Southwest 278 320 13,400  Level Oakland Center
Wed 01:06:00 PM 37.8672 -121.6987 63° Northeast  Level FlightAware Approximate
Wed 01:06:18 PM 37.3392 -121.9150 323° Northwest 270 311 16,100  Level Oakland Center
Wed 01:07:19 PM 37.4150 -121.9489 340° North 296 341 18,200 1,707 Climbing Oakland Center
Wed 01:08:21 PM 37.5067 -121.9575 356° North 332 382 19,600 1,512 Climbing Oakland Center
Wed 01:09:22 PM 37.6078 -121.9683 355° North 363 418 21,300 1,902 Climbing Oakland Center
Wed 01:10:24 PM 37.7375 -121.9742 358° North 391 450 23,500 1,951 Climbing Oakland Center
Wed 01:11:25 PM 37.8278 -121.8914 36° Northeast 413 475 25,300 1,918 Climbing Oakland Center
Wed 01:12:26 PM 37.8608 -121.7478 74° East 431 496 27,400 2,195 Climbing Oakland Center
Wed 01:13:28 PM 37.8858 -121.5997 78° East 431 496 29,800 2,439 Climbing Oakland Center
Wed 01:14:29 PM 37.9119 -121.4367 78° East 431 496 32,400 2,341 Climbing Oakland Center
Wed 01:15:31 PM 37.9358 -121.2897 78° East 430 495 34,600 1,854 Climbing Oakland Center
Wed 01:16:32 PM 37.9594 -121.1414 79° East 433 498 36,200 1,328 Climbing Oakland Center
Wed 01:17:33 PM 37.9850 -120.9869 78° East 448 516 37,300 1,024 Climbing Oakland Center
Wed 01:18:35 PM 38.0111 -120.8256 78° East 466 536 38,300 976 Climbing Oakland Center
Wed 01:19:36 PM 38.0372 -120.6611 79° East 477 549 39,300 934 Climbing Oakland Center
Wed 01:20:37 PM 38.0639 -120.4950 78° East 483 556 40,200 1,024 Climbing Oakland Center
Wed 01:21:39 PM 38.0942 -120.2933 79° East 485 558 41,400 1,073 Climbing Oakland Center
Wed 01:22:40 PM 38.1203 -120.1278 79° East 482 555 42,400 934 Climbing Oakland Center
Wed 01:23:41 PM 38.1489 -119.9647 77° East 477 549 43,300 689 Climbing Oakland Center
Wed 01:24:42 PM 38.1717 -119.8014 80° East 473 544 43,800 537 Climbing Oakland Center
Wed 01:25:44 PM 38.1956 -119.6392 79° East 471 542 44,400 537 Climbing Oakland Center
Wed 01:26:45 PM 38.2192 -119.4778 79° East 467 537 44,900 295 Climbing Oakland Center
Wed 01:27:46 PM 38.2444 -119.3017 80° East 469 540 45,000 49 Climbing Oakland Center
Wed 01:28:48 PM 38.2686 -119.1369 79° East 474 545 45,000  Level Oakland Center
Wed 01:29:49 PM 38.2925 -118.9703 80° East 480 552 45,000  Level Oakland Center
Wed 01:30:50 PM 38.3169 -118.8022 79° East 484 557 45,000  Level Oakland Center
Wed 01:31:52 PM 38.3406 -118.6317 80° East 490 564 45,000  Level Oakland Center
Wed 01:32:53 PM 38.3647 -118.4619 80° East 490 564 45,000  Level Oakland Center
Wed 01:33:54 PM 38.3925 -118.2561 80° East 492 566 45,000  Level Oakland Center
Wed 01:34:56 PM 38.4161 -118.0872 80° East 494 568 45,000  Level Oakland Center
Wed 01:35:57 PM 38.4394 -117.9136 80° East 494 568 45,000  Level Oakland Center
Wed 01:36:58 PM 38.4617 -117.7389 81° East 497 572 45,000  Level Oakland Center
Wed 01:38:00 PM 38.4847 -117.5636 80° East 496 571 45,000  Level Oakland Center
Wed 01:39:01 PM 38.5072 -117.3903 81° East 493 567 45,000  Level Oakland Center
Wed 01:39:43 PM 38.5167 -117.2536 85° East 484 557 45,000  Level Salt Lake Center
Wed 01:40:45 PM 38.5033 -117.0856 96° East 471 542 45,000  Level Salt Lake Center
Wed 01:41:04 PM 38.5006 -117.0525 96° East 470 541 45,000  Level Oakland Center
Wed 01:42:05 PM 38.4861 -116.8822 96° East 476 548 45,000  Level Oakland Center
Wed 01:43:06 PM 38.4717 -116.7111 96° East 480 552 45,000  Level Oakland Center
Wed 01:43:51 PM 38.4597 -116.5728 96° East 486 559 45,000  Level Salt Lake Center
Wed 01:44:53 PM 38.4442 -116.3989 96° East 491 565 45,000  Level Salt Lake Center
Wed 01:45:09 PM 38.4408 -116.3631 97° East 493 567 45,000  Level Oakland Center
Wed 01:46:10 PM 38.4219 -116.1525 96° East 497 572 45,000  Level Oakland Center
Wed 01:46:56 PM 38.4133 -116.0481 96° East 496 571 45,000  Level Salt Lake Center
Wed 01:47:58 PM 38.3964 -115.8717 97° East 500 575 45,000  Level Salt Lake Center
Wed 01:49:00 PM 38.3764 -115.6600 97° East 501 577 45,000  Level Salt Lake Center
Wed 01:50:02 PM 38.3600 -115.4836 97° East 502 578 45,000  Level Salt Lake Center
Wed 01:51:04 PM 38.3417 -115.2950 97° East 502 578 45,000  Level Salt Lake Center
Wed 01:52:06 PM 38.3247 -115.1175 97° East 506 582 45,000  Level Salt Lake Center
Wed 01:53:08 PM 38.3058 -114.9425 98° East 502 578 45,000  Level Salt Lake Center
Wed 01:54:10 PM 38.2886 -114.7650 97° East 505 581 45,000  Level Salt Lake Center
Wed 01:55:12 PM 38.2700 -114.5881 98° East 506 582 45,000 -532 Level Salt Lake Center
Wed 01:56:14 PM 38.2500 -114.4108 98° East 508 585 43,900 -1,306 Descending Salt Lake Center
Wed 01:57:16 PM 38.1853 -114.2061 112° Southeast 520 598 42,300 -1,403 Descending Salt Lake Center
Wed 01:58:18 PM 38.1275 -114.0386 114° Southeast 519 597 41,000 -1,258 Descending Salt Lake Center
Wed 01:59:20 PM 38.0706 -113.8756 114° Southeast 507 583 39,700 -1,366 Descending Salt Lake Center
Wed 02:00:21 PM 38.0147 -113.7128 113° Southeast 504 580 38,200 -1,659 Descending Salt Lake Center
Wed 02:01:23 PM 37.9567 -113.5497 114° Southeast 507 583 36,300 -1,548 Descending Salt Lake Center
Wed 02:02:25 PM 37.8992 -113.3839 114° Southeast 513 590 35,000 -629 Descending Salt Lake Center
Wed 02:03:27 PM 37.8406 -113.2197 114° Southeast 512 589 35,000 -48 Level Salt Lake Center
Wed 02:04:29 PM 37.7667 -113.0292 116° Southeast 502 578 34,900 -1,161 Descending Salt Lake Center
Wed 02:05:31 PM 37.6886 -112.8808 124° Southeast 501 577 32,600 -3,290 Descending Salt Lake Center
Wed 02:06:33 PM 37.6103 -112.7292 123° Southeast 495 570 28,100 -3,823 Descending Salt Lake Center
Wed 02:07:35 PM 37.5389 -112.5961 124° Southeast 468 539 24,700 -1,984 Descending Salt Lake Center
Wed 02:08:37 PM 37.4736 -112.4756 124° Southeast 430 495 24,000 -339 Descending Salt Lake Center
Wed 02:09:39 PM 37.4078 -112.3514 124° Southeast 424 488 24,000 -484 Level Salt Lake Center
Wed 02:10:41 PM 37.3389 -112.2217 124° Southeast 437 503 23,000 -1,452 Descending Salt Lake Center
Wed 02:11:43 PM 37.2689 -112.0922 124° Southeast 446 513 21,000 -2,234 Descending Salt Lake Center
Wed 02:12:58 PM 37.1717 -111.9142 124° Southeast 440 506 17,900 -2,234 Descending Los Angeles Center
Wed 02:14:00 PM 37.1072 -111.7953 124° Southeast 418 481 15,900 -2,371 Descending Los Angeles Center
Wed 02:15:02 PM 37.0458 -111.6836 125° Southeast 406 467 13,000 -2,667 Descending Los Angeles Center
Wed 02:15:57 PM 37.0025 -111.6008 123° Southeast 384 442 10,700 -2,051 Descending Denver Center
Wed 02:16:59 PM 36.9561 -111.5011 120° Southeast 303 349 9,000 -1,839 Descending Denver Center
Wed 02:18:01 PM 36.9325 -111.4264 112° Southeast 260 299 6,900 -1,742 Descending Denver Center
Wed 02:19:03 PM 36.8889 -111.4150 168° South 213 245 5,400 -1,452 Descending Denver Center

Login

Don't have an account? Register now (free) for customized features, flight alerts, and more!